sensor_id;sensor_type;location;lat;lon;timestamp;P1;durP1;ratioP1;P2;durP2;ratioP2
62256;SDS011;48240;52.962;5.790;2023-05-19T03:51:43;3.25;;;1.50;;
62256;SDS011;48240;52.962;5.790;2023-05-19T03:54:10;2.58;;;1.17;;
62256;SDS011;48240;52.962;5.790;2023-05-19T03:56:37;2.30;;;1.20;;
62256;SDS011;48240;52.962;5.790;2023-05-19T03:59:03;3.65;;;1.25;;
62256;SDS011;48240;52.962;5.790;2023-05-19T04:01:35;2.75;;;1.17;;
62256;SDS011;48240;52.962;5.790;2023-05-19T04:04:01;3.67;;;1.33;;
62256;SDS011;48240;52.962;5.790;2023-05-19T04:06:27;5.20;;;1.40;;
62256;SDS011;48240;52.962;5.790;2023-05-19T04:08:53;4.75;;;1.50;;
62256;SDS011;48240;52.962;5.790;2023-05-19T04:11:19;4.80;;;1.38;;
62256;SDS011;48240;52.962;5.790;2023-05-19T04:13:45;6.20;;;1.45;;
62256;SDS011;48240;52.962;5.790;2023-05-19T04:16:12;2.63;;;1.10;;
62256;SDS011;48240;52.962;5.790;2023-05-19T04:18:38;5.78;;;1.38;;
62256;SDS011;48240;52.962;5.790;2023-05-19T04:21:04;2.80;;;1.10;;
62256;SDS011;48240;52.962;5.790;2023-05-19T04:23:32;5.30;;;1.40;;
62256;SDS011;48240;52.962;5.790;2023-05-19T04:25:59;3.55;;;1.27;;
62256;SDS011;48240;52.962;5.790;2023-05-19T04:28:26;3.90;;;1.30;;
62256;SDS011;48240;52.962;5.790;2023-05-19T04:30:52;3.97;;;1.15;;
62256;SDS011;48240;52.962;5.790;2023-05-19T04:33:19;2.40;;;1.10;;
62256;SDS011;48240;52.962;5.790;2023-05-19T04:35:45;3.10;;;1.27;;
62256;SDS011;48240;52.962;5.790;2023-05-19T04:38:11;2.33;;;1.02;;
62256;SDS011;48240;52.962;5.790;2023-05-19T04:40:37;4.22;;;1.50;;
62256;SDS011;48240;52.962;5.790;2023-05-19T04:43:07;4.65;;;1.55;;
62256;SDS011;48240;52.962;5.790;2023-05-19T04:45:33;5.00;;;1.55;;
62256;SDS011;48240;52.962;5.790;2023-05-19T04:48:01;4.57;;;1.63;;
62256;SDS011;48240;52.962;5.790;2023-05-19T04:50:27;3.63;;;1.30;;
62256;SDS011;48240;52.962;5.790;2023-05-19T04:52:54;4.50;;;1.42;;
62256;SDS011;48240;52.962;5.790;2023-05-19T04:55:23;4.30;;;1.30;;
62256;SDS011;48240;52.962;5.790;2023-05-19T04:57:49;4.35;;;1.20;;
62256;SDS011;48240;52.962;5.790;2023-05-19T05:00:15;3.85;;;1.48;;
62256;SDS011;48240;52.962;5.790;2023-05-19T05:02:41;7.22;;;1.70;;
62256;SDS011;48240;52.962;5.790;2023-05-19T05:05:07;6.68;;;1.50;;
62256;SDS011;48240;52.962;5.790;2023-05-19T05:07:34;5.95;;;1.90;;
62256;SDS011;48240;52.962;5.790;2023-05-19T05:10:00;7.57;;;1.60;;
62256;SDS011;48240;52.962;5.790;2023-05-19T05:12:26;4.63;;;1.38;;
62256;SDS011;48240;52.962;5.790;2023-05-19T05:14:52;7.78;;;1.77;;
62256;SDS011;48240;52.962;5.790;2023-05-19T05:17:19;4.95;;;2.08;;
62256;SDS011;48240;52.962;5.790;2023-05-19T05:19:45;2.53;;;1.30;;
62256;SDS011;48240;52.962;5.790;2023-05-19T05:22:12;8.65;;;2.15;;
62256;SDS011;48240;52.962;5.790;2023-05-19T05:24:38;4.30;;;1.33;;
62256;SDS011;48240;52.962;5.790;2023-05-19T05:27:05;4.63;;;1.60;;
62256;SDS011;48240;52.962;5.790;2023-05-19T05:29:32;4.18;;;1.90;;
62256;SDS011;48240;52.962;5.790;2023-05-19T05:31:58;5.85;;;1.95;;
62256;SDS011;48240;52.962;5.790;2023-05-19T05:34:24;8.60;;;2.30;;
62256;SDS011;48240;52.962;5.790;2023-05-19T05:36:50;5.53;;;2.08;;
62256;SDS011;48240;52.962;5.790;2023-05-19T05:39:16;5.63;;;1.90;;
62256;SDS011;48240;52.962;5.790;2023-05-19T05:41:42;5.68;;;1.88;;
62256;SDS011;48240;52.962;5.790;2023-05-19T05:44:08;6.50;;;1.90;;
62256;SDS011;48240;52.962;5.790;2023-05-19T05:46:34;4.95;;;1.77;;
62256;SDS011;48240;52.962;5.790;2023-05-19T05:49:01;4.03;;;1.63;;
62256;SDS011;48240;52.962;5.790;2023-05-19T05:51:27;6.90;;;1.88;;
62256;SDS011;48240;52.962;5.790;2023-05-19T05:53:53;7.10;;;2.08;;
62256;SDS011;48240;52.962;5.790;2023-05-19T05:56:20;5.00;;;1.70;;
62256;SDS011;48240;52.962;5.790;2023-05-19T05:58:46;3.25;;;1.80;;
62256;SDS011;48240;52.962;5.790;2023-05-19T06:01:13;4.68;;;1.98;;
62256;SDS011;48240;52.962;5.790;2023-05-19T06:03:41;4.15;;;1.80;;
62256;SDS011;48240;52.962;5.790;2023-05-19T06:06:10;5.55;;;1.90;;
62256;SDS011;48240;52.962;5.790;2023-05-19T06:08:36;5.18;;;1.70;;
62256;SDS011;48240;52.962;5.790;2023-05-19T06:11:02;3.88;;;1.88;;
62256;SDS011;48240;52.962;5.790;2023-05-19T06:13:33;5.03;;;1.92;;
62256;SDS011;48240;52.962;5.790;2023-05-19T06:15:59;5.82;;;1.70;;
62256;SDS011;48240;52.962;5.790;2023-05-19T06:18:25;4.18;;;1.98;;
62256;SDS011;48240;52.962;5.790;2023-05-19T06:20:51;5.90;;;1.98;;
62256;SDS011;48240;52.962;5.790;2023-05-19T06:23:18;5.93;;;2.00;;
62256;SDS011;48240;52.962;5.790;2023-05-19T06:25:44;7.95;;;1.80;;
62256;SDS011;48240;52.962;5.790;2023-05-19T06:28:10;4.88;;;1.88;;
62256;SDS011;48240;52.962;5.790;2023-05-19T06:30:36;6.75;;;1.88;;
62256;SDS011;48240;52.962;5.790;2023-05-19T06:33:02;10.18;;;3.45;;
62256;SDS011;48240;52.962;5.790;2023-05-19T06:35:29;10.77;;;3.33;;
62256;SDS011;48240;52.962;5.790;2023-05-19T06:37:55;13.45;;;3.35;;
62256;SDS011;48240;52.962;5.790;2023-05-19T06:40:22;11.50;;;3.40;;
62256;SDS011;48240;52.962;5.790;2023-05-19T06:42:48;10.45;;;3.83;;
62256;SDS011;48240;52.962;5.790;2023-05-19T06:45:14;7.65;;;3.65;;
62256;SDS011;48240;52.962;5.790;2023-05-19T06:47:40;10.30;;;3.63;;
62256;SDS011;48240;52.962;5.790;2023-05-19T06:50:07;9.35;;;3.70;;
62256;SDS011;48240;52.962;5.790;2023-05-19T06:52:33;11.68;;;3.70;;
62256;SDS011;48240;52.962;5.790;2023-05-19T06:54:59;8.65;;;3.20;;
62256;SDS011;48240;52.962;5.790;2023-05-19T06:57:25;10.63;;;3.80;;
62256;SDS011;48240;52.962;5.790;2023-05-19T06:59:52;8.68;;;3.30;;
62256;SDS011;48240;52.962;5.790;2023-05-19T07:02:18;11.13;;;3.67;;
62256;SDS011;48240;52.962;5.790;2023-05-19T07:04:44;9.65;;;3.92;;
62256;SDS011;48240;52.962;5.790;2023-05-19T07:07:11;8.93;;;3.75;;
62256;SDS011;48240;52.962;5.790;2023-05-19T07:09:37;8.90;;;3.42;;
62256;SDS011;48240;52.962;5.790;2023-05-19T07:12:03;10.30;;;3.53;;
62256;SDS011;48240;52.962;5.790;2023-05-19T07:14:30;9.52;;;3.13;;
62256;SDS011;48240;52.962;5.790;2023-05-19T07:16:56;14.38;;;3.58;;
62256;SDS011;48240;52.962;5.790;2023-05-19T07:19:22;11.43;;;3.55;;
62256;SDS011;48240;52.962;5.790;2023-05-19T07:21:48;6.38;;;2.88;;
62256;SDS011;48240;52.962;5.790;2023-05-19T07:24:14;8.07;;;3.20;;
62256;SDS011;48240;52.962;5.790;2023-05-19T07:26:41;8.13;;;3.30;;
62256;SDS011;48240;52.962;5.790;2023-05-19T07:29:07;10.18;;;3.40;;
62256;SDS011;48240;52.962;5.790;2023-05-19T07:31:33;16.35;;;3.22;;
62256;SDS011;48240;52.962;5.790;2023-05-19T07:33:59;9.32;;;3.15;;
62256;SDS011;48240;52.962;5.790;2023-05-19T07:36:25;11.75;;;3.45;;
62256;SDS011;48240;52.962;5.790;2023-05-19T07:38:51;9.77;;;3.10;;
62256;SDS011;48240;52.962;5.790;2023-05-19T07:41:17;7.93;;;2.75;;
62256;SDS011;48240;52.962;5.790;2023-05-19T07:43:43;10.20;;;2.35;;
62256;SDS011;48240;52.962;5.790;2023-05-19T07:46:10;7.80;;;2.28;;
62256;SDS011;48240;52.962;5.790;2023-05-19T07:48:36;7.65;;;2.50;;
62256;SDS011;48240;52.962;5.790;2023-05-19T07:51:02;5.45;;;2.35;;
62256;SDS011;48240;52.962;5.790;2023-05-19T07:53:28;6.47;;;1.80;;
62256;SDS011;48240;52.962;5.790;2023-05-19T07:55:54;5.30;;;1.98;;
62256;SDS011;48240;52.962;5.790;2023-05-19T07:58:21;8.85;;;1.98;;
62256;SDS011;48240;52.962;5.790;2023-05-19T08:00:47;11.15;;;2.30;;
62256;SDS011;48240;52.962;5.790;2023-05-19T08:03:13;10.80;;;2.30;;
62256;SDS011;48240;52.962;5.790;2023-05-19T08:05:41;15.45;;;2.03;;
62256;SDS011;48240;52.962;5.790;2023-05-19T08:08:08;10.02;;;2.50;;
62256;SDS011;48240;52.962;5.790;2023-05-19T08:10:35;6.75;;;1.70;;
62256;SDS011;48240;52.962;5.790;2023-05-19T08:13:01;6.38;;;1.85;;
62256;SDS011;48240;52.962;5.790;2023-05-19T08:15:27;4.28;;;1.92;;
62256;SDS011;48240;52.962;5.790;2023-05-19T08:17:54;9.75;;;2.03;;
62256;SDS011;48240;52.962;5.790;2023-05-19T08:20:20;6.65;;;1.98;;
62256;SDS011;48240;52.962;5.790;2023-05-19T08:22:47;7.10;;;2.13;;
62256;SDS011;48240;52.962;5.790;2023-05-19T08:25:13;8.18;;;2.00;;
62256;SDS011;48240;52.962;5.790;2023-05-19T08:27:39;7.22;;;2.28;;
62256;SDS011;48240;52.962;5.790;2023-05-19T08:30:06;5.22;;;1.98;;
62256;SDS011;48240;52.962;5.790;2023-05-19T08:32:32;7.05;;;1.80;;
62256;SDS011;48240;52.962;5.790;2023-05-19T08:34:58;9.43;;;2.20;;
62256;SDS011;48240;52.962;5.790;2023-05-19T08:37:24;5.60;;;2.00;;
62256;SDS011;48240;52.962;5.790;2023-05-19T08:39:50;6.57;;;1.95;;
62256;SDS011;48240;52.962;5.790;2023-05-19T08:42:16;5.13;;;1.88;;
62256;SDS011;48240;52.962;5.790;2023-05-19T08:44:42;6.30;;;2.35;;
62256;SDS011;48240;52.962;5.790;2023-05-19T08:47:09;9.25;;;2.28;;
62256;SDS011;48240;52.962;5.790;2023-05-19T08:49:44;6.60;;;1.90;;
62256;SDS011;48240;52.962;5.790;2023-05-19T08:52:32;7.97;;;2.08;;
62256;SDS011;48240;52.962;5.790;2023-05-19T08:55:05;5.43;;;1.92;;
62256;SDS011;48240;52.962;5.790;2023-05-19T08:57:34;4.45;;;1.80;;
62256;SDS011;48240;52.962;5.790;2023-05-19T09:00:04;6.63;;;2.03;;
62256;SDS011;48240;52.962;5.790;2023-05-19T09:02:36;6.13;;;1.90;;
62256;SDS011;48240;52.962;5.790;2023-05-19T09:05:03;3.72;;;1.75;;
62256;SDS011;48240;52.962;5.790;2023-05-19T09:07:30;6.25;;;1.90;;
62256;SDS011;48240;52.962;5.790;2023-05-19T09:09:59;5.65;;;1.80;;
62256;SDS011;48240;52.962;5.790;2023-05-19T09:12:26;9.73;;;2.50;;
62256;SDS011;48240;52.962;5.790;2023-05-19T09:14:52;6.18;;;2.10;;
62256;SDS011;48240;52.962;5.790;2023-05-19T09:17:18;5.22;;;2.00;;
62256;SDS011;48240;52.962;5.790;2023-05-19T09:19:44;6.22;;;2.00;;
62256;SDS011;48240;52.962;5.790;2023-05-19T09:22:14;6.38;;;2.15;;
62256;SDS011;48240;52.962;5.790;2023-05-19T09:24:43;4.75;;;1.80;;
62256;SDS011;48240;52.962;5.790;2023-05-19T09:27:10;4.50;;;1.90;;
62256;SDS011;48240;52.962;5.790;2023-05-19T09:29:38;6.38;;;1.98;;
62256;SDS011;48240;52.962;5.790;2023-05-19T09:32:05;3.85;;;1.75;;
62256;SDS011;48240;52.962;5.790;2023-05-19T09:34:31;6.38;;;1.83;;
62256;SDS011;48240;52.962;5.790;2023-05-19T09:36:57;4.93;;;2.25;;
62256;SDS011;48240;52.962;5.790;2023-05-19T09:39:24;5.93;;;2.05;;
62256;SDS011;48240;52.962;5.790;2023-05-19T09:41:50;5.90;;;1.85;;
62256;SDS011;48240;52.962;5.790;2023-05-19T09:44:24;3.33;;;1.73;;
62256;SDS011;48240;52.962;5.790;2023-05-19T09:46:54;6.25;;;2.00;;
62256;SDS011;48240;52.962;5.790;2023-05-19T09:49:21;7.40;;;2.30;;
62256;SDS011;48240;52.962;5.790;2023-05-19T09:51:54;7.15;;;1.92;;
62256;SDS011;48240;52.962;5.790;2023-05-19T09:54:21;5.65;;;1.80;;
62256;SDS011;48240;52.962;5.790;2023-05-19T09:56:55;5.57;;;2.05;;
62256;SDS011;48240;52.962;5.790;2023-05-19T09:59:23;3.53;;;1.63;;
62256;SDS011;48240;52.962;5.790;2023-05-19T10:01:51;3.58;;;2.00;;
62256;SDS011;48240;52.962;5.790;2023-05-19T10:04:17;5.22;;;2.00;;
62256;SDS011;48240;52.962;5.790;2023-05-19T10:06:44;4.93;;;1.98;;
62256;SDS011;48240;52.962;5.790;2023-05-19T10:09:10;4.07;;;2.00;;
62256;SDS011;48240;52.962;5.790;2023-05-19T10:11:37;4.28;;;1.75;;
62256;SDS011;48240;52.962;5.790;2023-05-19T10:14:03;6.35;;;2.50;;
62256;SDS011;48240;52.962;5.790;2023-05-19T10:16:30;6.88;;;1.92;;
62256;SDS011;48240;52.962;5.790;2023-05-19T10:18:56;7.85;;;2.15;;
62256;SDS011;48240;52.962;5.790;2023-05-19T10:21:24;6.72;;;2.53;;
62256;SDS011;48240;52.962;5.790;2023-05-19T10:23:50;7.68;;;2.50;;
62256;SDS011;48240;52.962;5.790;2023-05-19T10:26:16;9.45;;;2.20;;
62256;SDS011;48240;52.962;5.790;2023-05-19T10:28:43;8.75;;;2.10;;
62256;SDS011;48240;52.962;5.790;2023-05-19T10:31:10;10.73;;;2.17;;
62256;SDS011;48240;52.962;5.790;2023-05-19T10:33:46;7.05;;;2.20;;
62256;SDS011;48240;52.962;5.790;2023-05-19T10:36:28;4.05;;;2.00;;
62256;SDS011;48240;52.962;5.790;2023-05-19T10:39:06;7.55;;;2.17;;
62256;SDS011;48240;52.962;5.790;2023-05-19T10:46:39;6.57;;;2.22;;
62256;SDS011;48240;52.962;5.790;2023-05-19T10:49:07;5.38;;;2.30;;
62256;SDS011;48240;52.962;5.790;2023-05-19T10:51:33;5.35;;;2.38;;
62256;SDS011;48240;52.962;5.790;2023-05-19T10:54:09;5.05;;;1.83;;
62256;SDS011;48240;52.962;5.790;2023-05-19T10:56:38;4.95;;;2.60;;
62256;SDS011;48240;52.962;5.790;2023-05-19T10:59:06;4.80;;;2.10;;
62256;SDS011;48240;52.962;5.790;2023-05-19T11:01:33;6.70;;;1.80;;
62256;SDS011;48240;52.962;5.790;2023-05-19T11:04:06;4.22;;;2.10;;
62256;SDS011;48240;52.962;5.790;2023-05-19T11:06:36;5.72;;;2.40;;
62256;SDS011;48240;52.962;5.790;2023-05-19T11:11:46;9.65;;;3.03;;
62256;SDS011;48240;52.962;5.790;2023-05-19T11:14:13;7.85;;;2.85;;
62256;SDS011;48240;52.962;5.790;2023-05-19T11:16:41;8.43;;;2.83;;
62256;SDS011;48240;52.962;5.790;2023-05-19T11:19:07;7.07;;;2.88;;
62256;SDS011;48240;52.962;5.790;2023-05-19T11:21:47;7.07;;;2.90;;
62256;SDS011;48240;52.962;5.790;2023-05-19T11:24:44;7.93;;;2.50;;
62256;SDS011;48240;52.962;5.790;2023-05-19T11:29:39;6.90;;;2.25;;
62256;SDS011;48240;52.962;5.790;2023-05-19T11:32:06;5.13;;;2.33;;
62256;SDS011;48240;52.962;5.790;2023-05-19T11:34:32;6.15;;;2.33;;
62256;SDS011;48240;52.962;5.790;2023-05-19T11:37:00;4.85;;;2.10;;
62256;SDS011;48240;52.962;5.790;2023-05-19T11:39:26;7.13;;;1.80;;
62256;SDS011;48240;52.962;5.790;2023-05-19T11:41:54;5.50;;;2.30;;
62256;SDS011;48240;52.962;5.790;2023-05-19T11:44:20;5.25;;;2.50;;
62256;SDS011;48240;52.962;5.790;2023-05-19T11:46:46;5.07;;;2.28;;
62256;SDS011;48240;52.962;5.790;2023-05-19T11:49:12;6.10;;;2.10;;
62256;SDS011;48240;52.962;5.790;2023-05-19T11:51:43;5.03;;;2.40;;
62256;SDS011;48240;52.962;5.790;2023-05-19T11:54:09;3.75;;;1.83;;
62256;SDS011;48240;52.962;5.790;2023-05-19T11:56:38;4.50;;;1.85;;
62256;SDS011;48240;52.962;5.790;2023-05-19T11:59:05;5.97;;;2.30;;
62256;SDS011;48240;52.962;5.790;2023-05-19T12:01:32;6.50;;;2.13;;
62256;SDS011;48240;52.962;5.790;2023-05-19T12:03:58;3.80;;;1.95;;
62256;SDS011;48240;52.962;5.790;2023-05-19T12:06:24;5.32;;;1.85;;
62256;SDS011;48240;52.962;5.790;2023-05-19T12:08:51;5.07;;;2.00;;
62256;SDS011;48240;52.962;5.790;2023-05-19T12:11:17;4.35;;;1.65;;
62256;SDS011;48240;52.962;5.790;2023-05-19T12:13:44;6.03;;;1.85;;
62256;SDS011;48240;52.962;5.790;2023-05-19T12:16:10;4.93;;;2.10;;
62256;SDS011;48240;52.962;5.790;2023-05-19T12:18:36;4.82;;;1.70;;
62256;SDS011;48240;52.962;5.790;2023-05-19T12:21:03;3.80;;;2.00;;
62256;SDS011;48240;52.962;5.790;2023-05-19T12:23:29;5.05;;;1.85;;
62256;SDS011;48240;52.962;5.790;2023-05-19T12:25:57;4.68;;;1.83;;
62256;SDS011;48240;52.962;5.790;2023-05-19T12:28:23;4.20;;;2.03;;
62256;SDS011;48240;52.962;5.790;2023-05-19T12:30:50;7.20;;;2.28;;
62256;SDS011;48240;52.962;5.790;2023-05-19T12:33:17;8.27;;;2.47;;
62256;SDS011;48240;52.962;5.790;2023-05-19T12:35:43;8.70;;;2.17;;
62256;SDS011;48240;52.962;5.790;2023-05-19T12:38:13;4.95;;;2.00;;
62256;SDS011;48240;52.962;5.790;2023-05-19T12:40:40;5.70;;;1.77;;
62256;SDS011;48240;52.962;5.790;2023-05-19T12:43:06;5.85;;;1.98;;
62256;SDS011;48240;52.962;5.790;2023-05-19T12:45:36;4.85;;;1.75;;
62256;SDS011;48240;52.962;5.790;2023-05-19T12:48:12;5.38;;;1.70;;
62256;SDS011;48240;52.962;5.790;2023-05-19T12:50:40;6.55;;;1.70;;
62256;SDS011;48240;52.962;5.790;2023-05-19T12:53:07;4.45;;;1.85;;
62256;SDS011;48240;52.962;5.790;2023-05-19T12:55:40;5.28;;;2.08;;
62256;SDS011;48240;52.962;5.790;2023-05-19T12:58:13;8.20;;;1.80;;
62256;SDS011;48240;52.962;5.790;2023-05-19T13:00:42;5.35;;;1.60;;
62256;SDS011;48240;52.962;5.790;2023-05-19T13:03:15;4.03;;;1.55;;
62256;SDS011;48240;52.962;5.790;2023-05-19T13:05:43;5.13;;;1.80;;
62256;SDS011;48240;52.962;5.790;2023-05-19T13:08:28;3.35;;;1.50;;
62256;SDS011;48240;52.962;5.790;2023-05-19T13:10:55;4.25;;;1.80;;
62256;SDS011;48240;52.962;5.790;2023-05-19T13:13:21;5.13;;;1.60;;
62256;SDS011;48240;52.962;5.790;2023-05-19T13:15:47;7.22;;;2.10;;
62256;SDS011;48240;52.962;5.790;2023-05-19T13:18:13;6.43;;;1.85;;
62256;SDS011;48240;52.962;5.790;2023-05-19T13:20:40;6.78;;;2.17;;
62256;SDS011;48240;52.962;5.790;2023-05-19T13:23:08;4.68;;;1.60;;
62256;SDS011;48240;52.962;5.790;2023-05-19T13:25:34;13.63;;;2.10;;
62256;SDS011;48240;52.962;5.790;2023-05-19T13:28:01;7.70;;;2.28;;
62256;SDS011;48240;52.962;5.790;2023-05-19T13:30:31;7.07;;;1.70;;
62256;SDS011;48240;52.962;5.790;2023-05-19T13:32:57;4.85;;;1.60;;
62256;SDS011;48240;52.962;5.790;2023-05-19T13:35:23;9.35;;;2.00;;
62256;SDS011;48240;52.962;5.790;2023-05-19T13:37:49;4.07;;;1.58;;
62256;SDS011;48240;52.962;5.790;2023-05-19T13:40:15;6.13;;;2.22;;
62256;SDS011;48240;52.962;5.790;2023-05-19T13:42:42;6.63;;;1.90;;
62256;SDS011;48240;52.962;5.790;2023-05-19T13:45:08;11.10;;;2.20;;
62256;SDS011;48240;52.962;5.790;2023-05-19T13:47:34;4.95;;;1.90;;
62256;SDS011;48240;52.962;5.790;2023-05-19T13:50:01;5.05;;;1.90;;
62256;SDS011;48240;52.962;5.790;2023-05-19T13:52:28;6.47;;;2.10;;
62256;SDS011;48240;52.962;5.790;2023-05-19T13:54:54;5.53;;;1.88;;
62256;SDS011;48240;52.962;5.790;2023-05-19T13:57:21;9.15;;;2.05;;
62256;SDS011;48240;52.962;5.790;2023-05-19T13:59:47;5.22;;;1.70;;
62256;SDS011;48240;52.962;5.790;2023-05-19T14:02:14;4.97;;;1.67;;
62256;SDS011;48240;52.962;5.790;2023-05-19T14:04:40;6.78;;;1.88;;
62256;SDS011;48240;52.962;5.790;2023-05-19T14:07:06;3.97;;;1.63;;
62256;SDS011;48240;52.962;5.790;2023-05-19T14:09:34;7.43;;;1.73;;
62256;SDS011;48240;52.962;5.790;2023-05-19T14:12:00;5.80;;;1.45;;
62256;SDS011;48240;52.962;5.790;2023-05-19T14:14:27;4.25;;;1.58;;
62256;SDS011;48240;52.962;5.790;2023-05-19T14:16:53;7.47;;;1.90;;
62256;SDS011;48240;52.962;5.790;2023-05-19T14:19:19;4.45;;;1.83;;
62256;SDS011;48240;52.962;5.790;2023-05-19T14:21:45;6.07;;;2.08;;
62256;SDS011;48240;52.962;5.790;2023-05-19T14:24:11;3.05;;;1.48;;
62256;SDS011;48240;52.962;5.790;2023-05-19T14:26:37;3.75;;;1.65;;
62256;SDS011;48240;52.962;5.790;2023-05-19T14:29:03;6.47;;;1.88;;
62256;SDS011;48240;52.962;5.790;2023-05-19T14:31:29;4.20;;;1.52;;
62256;SDS011;48240;52.962;5.790;2023-05-19T14:33:55;4.90;;;1.70;;
62256;SDS011;48240;52.962;5.790;2023-05-19T14:36:21;4.05;;;1.98;;
62256;SDS011;48240;52.962;5.790;2023-05-19T14:38:47;5.63;;;1.70;;
62256;SDS011;48240;52.962;5.790;2023-05-19T14:41:13;5.35;;;2.03;;
62256;SDS011;48240;52.962;5.790;2023-05-19T14:43:39;7.13;;;2.08;;
62256;SDS011;48240;52.962;5.790;2023-05-19T14:46:07;6.13;;;1.60;;
62256;SDS011;48240;52.962;5.790;2023-05-19T14:48:33;4.45;;;1.65;;
62256;SDS011;48240;52.962;5.790;2023-05-19T14:50:59;5.15;;;1.63;;
62256;SDS011;48240;52.962;5.790;2023-05-19T14:53:25;5.05;;;1.67;;
62256;SDS011;48240;52.962;5.790;2023-05-19T14:55:52;6.07;;;1.50;;
62256;SDS011;48240;52.962;5.790;2023-05-19T14:58:18;3.75;;;1.60;;
62256;SDS011;48240;52.962;5.790;2023-05-19T15:00:44;4.57;;;1.60;;
62256;SDS011;48240;52.962;5.790;2023-05-19T15:03:12;4.03;;;1.58;;
62256;SDS011;48240;52.962;5.790;2023-05-19T15:05:38;5.30;;;1.60;;
62256;SDS011;48240;52.962;5.790;2023-05-19T15:08:04;7.45;;;1.90;;
62256;SDS011;48240;52.962;5.790;2023-05-19T15:10:31;17.05;;;1.75;;
62256;SDS011;48240;52.962;5.790;2023-05-19T15:12:57;4.68;;;1.83;;
62256;SDS011;48240;52.962;5.790;2023-05-19T15:15:24;5.00;;;1.80;;
62256;SDS011;48240;52.962;5.790;2023-05-19T15:17:50;8.25;;;2.28;;
62256;SDS011;48240;52.962;5.790;2023-05-19T15:20:16;24.83;;;5.55;;
62256;SDS011;48240;52.962;5.790;2023-05-19T15:22:42;38.05;;;8.50;;
62256;SDS011;48240;52.962;5.790;2023-05-19T15:25:08;69.95;;;12.50;;
62256;SDS011;48240;52.962;5.790;2023-05-19T15:27:34;64.78;;;14.00;;
62256;SDS011;48240;52.962;5.790;2023-05-19T15:30:01;63.92;;;12.73;;
62256;SDS011;48240;52.962;5.790;2023-05-19T15:32:29;75.68;;;16.25;;
62256;SDS011;48240;52.962;5.790;2023-05-19T15:34:55;91.45;;;19.42;;
62256;SDS011;48240;52.962;5.790;2023-05-19T15:37:21;82.05;;;18.25;;
62256;SDS011;48240;52.962;5.790;2023-05-19T15:39:47;91.45;;;19.55;;
62256;SDS011;48240;52.962;5.790;2023-05-19T15:42:13;94.45;;;19.75;;
62256;SDS011;48240;52.962;5.790;2023-05-19T15:44:39;93.03;;;19.30;;
62256;SDS011;48240;52.962;5.790;2023-05-19T15:47:05;93.63;;;20.77;;
62256;SDS011;48240;52.962;5.790;2023-05-19T15:49:31;91.30;;;20.40;;
62256;SDS011;48240;52.962;5.790;2023-05-19T15:51:57;84.22;;;19.30;;
62256;SDS011;48240;52.962;5.790;2023-05-19T15:54:23;76.43;;;19.20;;
62256;SDS011;48240;52.962;5.790;2023-05-19T15:56:49;74.80;;;16.20;;
62256;SDS011;48240;52.962;5.790;2023-05-19T15:59:16;78.80;;;17.50;;
62256;SDS011;48240;52.962;5.790;2023-05-19T16:01:42;56.65;;;14.43;;
62256;SDS011;48240;52.962;5.790;2023-05-19T16:04:08;58.05;;;12.95;;
62256;SDS011;48240;52.962;5.790;2023-05-19T16:06:34;69.00;;;14.48;;
62256;SDS011;48240;52.962;5.790;2023-05-19T16:09:00;93.80;;;21.83;;
62256;SDS011;48240;52.962;5.790;2023-05-19T16:11:26;101.10;;;23.67;;
62256;SDS011;48240;52.962;5.790;2023-05-19T16:13:52;94.85;;;22.95;;
62256;SDS011;48240;52.962;5.790;2023-05-19T16:16:18;98.60;;;21.98;;
62256;SDS011;48240;52.962;5.790;2023-05-19T16:18:44;90.40;;;19.40;;
62256;SDS011;48240;52.962;5.790;2023-05-19T16:21:10;75.20;;;18.52;;
62256;SDS011;48240;52.962;5.790;2023-05-19T16:23:36;82.07;;;19.10;;
62256;SDS011;48240;52.962;5.790;2023-05-19T16:26:02;72.47;;;16.83;;
62256;SDS011;48240;52.962;5.790;2023-05-19T16:28:28;65.20;;;16.58;;
62256;SDS011;48240;52.962;5.790;2023-05-19T16:30:59;70.68;;;17.50;;
62256;SDS011;48240;52.962;5.790;2023-05-19T16:33:26;60.10;;;15.77;;
62256;SDS011;48240;52.962;5.790;2023-05-19T16:35:52;63.50;;;15.80;;
62256;SDS011;48240;52.962;5.790;2023-05-19T16:38:18;60.35;;;16.23;;
62256;SDS011;48240;52.962;5.790;2023-05-19T16:40:44;57.10;;;15.43;;
62256;SDS011;48240;52.962;5.790;2023-05-19T16:43:10;52.35;;;14.23;;
62256;SDS011;48240;52.962;5.790;2023-05-19T16:45:36;56.97;;;14.30;;
62256;SDS011;48240;52.962;5.790;2023-05-19T16:48:02;54.17;;;13.73;;
62256;SDS011;48240;52.962;5.790;2023-05-19T16:50:29;41.83;;;12.50;;
62256;SDS011;48240;52.962;5.790;2023-05-19T16:52:55;51.90;;;12.32;;
62256;SDS011;48240;52.962;5.790;2023-05-19T16:55:21;50.47;;;13.13;;
62256;SDS011;48240;52.962;5.790;2023-05-19T16:57:49;45.03;;;11.90;;
62256;SDS011;48240;52.962;5.790;2023-05-19T17:00:15;45.28;;;11.55;;
62256;SDS011;48240;52.962;5.790;2023-05-19T17:02:41;41.90;;;11.88;;
62256;SDS011;48240;52.962;5.790;2023-05-19T17:05:07;39.67;;;10.55;;
62256;SDS011;48240;52.962;5.790;2023-05-19T17:07:33;39.15;;;9.77;;
62256;SDS011;48240;52.962;5.790;2023-05-19T17:09:59;29.98;;;8.27;;
62256;SDS011;48240;52.962;5.790;2023-05-19T17:12:25;26.02;;;7.78;;
62256;SDS011;48240;52.962;5.790;2023-05-19T17:14:52;40.03;;;9.30;;
62256;SDS011;48240;52.962;5.790;2023-05-19T17:17:18;35.08;;;9.15;;
62256;SDS011;48240;52.962;5.790;2023-05-19T17:19:44;27.90;;;7.78;;
62256;SDS011;48240;52.962;5.790;2023-05-19T17:22:10;35.15;;;8.65;;
62256;SDS011;48240;52.962;5.790;2023-05-19T17:24:36;24.67;;;7.85;;
62256;SDS011;48240;52.962;5.790;2023-05-19T17:27:03;30.05;;;7.10;;
62256;SDS011;48240;52.962;5.790;2023-05-19T17:29:29;31.77;;;7.60;;
62256;SDS011;48240;52.962;5.790;2023-05-19T17:31:55;25.75;;;7.47;;
62256;SDS011;48240;52.962;5.790;2023-05-19T17:34:21;24.75;;;7.47;;
62256;SDS011;48240;52.962;5.790;2023-05-19T17:36:47;21.67;;;6.57;;
62256;SDS011;48240;52.962;5.790;2023-05-19T17:39:13;20.83;;;5.95;;
62256;SDS011;48240;52.962;5.790;2023-05-19T17:41:40;18.85;;;5.53;;
62256;SDS011;48240;52.962;5.790;2023-05-19T17:44:06;23.55;;;6.03;;
62256;SDS011;48240;52.962;5.790;2023-05-19T17:46:32;26.20;;;6.38;;
62256;SDS011;48240;52.962;5.790;2023-05-19T17:48:59;17.77;;;5.68;;
62256;SDS011;48240;52.962;5.790;2023-05-19T17:51:25;18.85;;;6.20;;
62256;SDS011;48240;52.962;5.790;2023-05-19T17:53:51;20.20;;;5.80;;
62256;SDS011;48240;52.962;5.790;2023-05-19T17:56:18;19.42;;;5.57;;
62256;SDS011;48240;52.962;5.790;2023-05-19T17:58:46;18.40;;;5.38;;
62256;SDS011;48240;52.962;5.790;2023-05-19T18:01:13;19.67;;;5.80;;
62256;SDS011;48240;52.962;5.790;2023-05-19T18:03:39;24.25;;;6.00;;
62256;SDS011;48240;52.962;5.790;2023-05-19T18:06:07;16.42;;;5.00;;
62256;SDS011;48240;52.962;5.790;2023-05-19T18:08:33;17.40;;;4.78;;
62256;SDS011;48240;52.962;5.790;2023-05-19T18:11:01;16.65;;;5.55;;
62256;SDS011;48240;52.962;5.790;2023-05-19T18:13:27;18.10;;;5.20;;
62256;SDS011;48240;52.962;5.790;2023-05-19T18:15:53;17.30;;;5.25;;
62256;SDS011;48240;52.962;5.790;2023-05-19T18:18:21;18.65;;;5.13;;
62256;SDS011;48240;52.962;5.790;2023-05-19T18:20:47;19.92;;;5.00;;
62256;SDS011;48240;52.962;5.790;2023-05-19T18:23:13;16.52;;;4.25;;
62256;SDS011;48240;52.962;5.790;2023-05-19T18:25:39;15.23;;;5.05;;
62256;SDS011;48240;52.962;5.790;2023-05-19T18:28:05;13.20;;;4.20;;
62256;SDS011;48240;52.962;5.790;2023-05-19T18:30:31;20.40;;;5.15;;
62256;SDS011;48240;52.962;5.790;2023-05-19T18:32:57;16.27;;;5.18;;
62256;SDS011;48240;52.962;5.790;2023-05-19T18:35:26;11.85;;;3.47;;
62256;SDS011;48240;52.962;5.790;2023-05-19T18:37:53;16.70;;;4.47;;
62256;SDS011;48240;52.962;5.790;2023-05-19T18:40:20;14.45;;;4.47;;
62256;SDS011;48240;52.962;5.790;2023-05-19T18:42:46;13.90;;;3.45;;